Time;durP1;ratioP1;P1;durP2;ratioP2;P2;SDS_P1;SDS_P2;PMS_P1;PMS_P2;Temp;Humidity;BMP_temperature;BMP_pressure;BME280_temperature;BME280_humidity;BME280_pressure;Samples;Min_cycle;Max_cycle;Signal;HPM_P1;HPM_P2
2023/06/11 04:01:52;;;;;;;4.33;3.57;;;16.40;91.00;;;;;;5365913;23;20565;-88
2023/06/11 04:04:18;;;;;;;2.80;2.60;;;16.40;91.30;;;;;;4944565;28;20930;-89
2023/06/11 04:06:43;;;;;;;2.53;2.40;;;16.40;90.90;;;;;;4952101;29;20229;-88
2023/06/11 04:09:09;;;;;;;4.07;3.67;;;16.40;90.80;;;;;;4953696;29;20175;-89
2023/06/11 04:11:34;;;;;;;8.30;2.97;;;16.40;91.10;;;;;;4954977;29;20670;-89
2023/06/11 04:14:08;;;;;;;3.10;2.40;;;16.50;91.50;;;;;;4952377;28;20207;-89
2023/06/11 04:16:33;;;;;;;2.40;2.20;;;16.50;91.50;;;;;;4935848;23;1078621;-87
2023/06/11 04:18:59;;;;;;;3.23;2.70;;;16.50;91.60;;;;;;4946916;29;20430;-86
2023/06/11 04:21:24;;;;;;;3.00;2.63;;;16.50;91.50;;;;;;4950250;29;20670;-84
2023/06/11 04:23:51;;;;;;;2.70;1.80;;;16.60;91.40;;;;;;4937900;29;20180;-85
2023/06/11 04:26:19;;;;;;;2.93;2.73;;;16.60;91.30;;;;;;4936416;29;20662;-84
2023/06/11 04:28:45;;;;;;;4.60;2.70;;;16.60;91.60;;;;;;4932962;29;20420;-84
2023/06/11 04:31:11;;;;;;;7.17;3.30;;;16.60;91.40;;;;;;4922401;29;20428;-84
2023/06/11 04:33:37;;;;;;;8.10;3.83;;;16.60;91.20;;;;;;4934433;29;20471;-86
2023/06/11 04:36:05;;;;;;;3.70;2.67;;;16.60;91.00;;;;;;4928930;29;20478;-82
2023/06/11 04:38:31;;;;;;;3.07;2.43;;;16.60;91.00;;;;;;4933305;29;20941;-82
2023/06/11 04:40:57;;;;;;;6.40;3.70;;;16.60;90.90;;;;;;4927300;29;20424;-84
2023/06/11 04:43:23;;;;;;;6.87;3.43;;;16.60;90.70;;;;;;4919162;29;20421;-83
2023/06/11 04:45:55;;;;;;;2.97;2.80;;;16.60;90.90;;;;;;4918859;29;20452;-81
2023/06/11 04:48:22;;;;;;;3.03;2.83;;;16.60;90.50;;;;;;4931424;29;20436;-83
2023/06/11 04:50:48;;;;;;;4.93;3.67;;;16.60;90.50;;;;;;4932273;29;20981;-83
2023/06/11 04:53:21;;;;;;;4.83;3.20;;;16.60;90.70;;;;;;4925812;29;20468;-86
2023/06/11 04:55:49;;;;;;;4.57;2.73;;;16.70;90.80;;;;;;4935983;29;20997;-84
2023/06/11 04:58:15;;;;;;;4.53;3.53;;;16.70;90.60;;;;;;4923469;29;20424;-85
2023/06/11 05:00:42;;;;;;;4.03;2.77;;;16.70;90.40;;;;;;4938389;29;20524;-84
2023/06/11 05:03:07;;;;;;;4.57;3.33;;;16.70;90.10;;;;;;4932479;29;20184;-84
2023/06/11 05:05:33;;;;;;;5.37;3.77;;;16.70;90.00;;;;;;4945705;29;20439;-84
2023/06/11 05:07:58;;;;;;;2.60;2.40;;;16.80;89.80;;;;;;4946534;29;20288;-85
2023/06/11 05:10:24;;;;;;;4.33;3.20;;;16.80;89.70;;;;;;4947974;29;20198;-84
2023/06/11 05:12:49;;;;;;;3.40;2.13;;;16.80;89.40;;;;;;4936457;29;20184;-85
2023/06/11 05:15:15;;;;;;;3.50;2.87;;;16.90;88.70;;;;;;4945056;29;20224;-86
2023/06/11 05:17:41;;;;;;;4.30;2.80;;;16.90;88.70;;;;;;4937255;29;20198;-85
2023/06/11 05:20:07;;;;;;;2.43;2.23;;;16.90;88.30;;;;;;4938954;29;20255;-83
2023/06/11 05:22:34;;;;;;;5.60;2.90;;;17.00;88.30;;;;;;4963128;29;20412;-86
2023/06/11 05:24:59;;;;;;;7.43;2.53;;;17.00;88.20;;;;;;4929456;29;20431;-83
2023/06/11 05:27:28;;;;;;;3.20;2.50;;;17.00;88.20;;;;;;4928573;29;20446;-85
2023/06/11 05:29:55;;;;;;;4.00;3.43;;;17.10;88.10;;;;;;4934204;29;20184;-83
2023/06/11 05:32:21;;;;;;;2.57;2.37;;;17.10;88.10;;;;;;4926597;29;20451;-85
2023/06/11 05:34:49;;;;;;;4.50;3.10;;;17.20;88.00;;;;;;4933051;29;20798;-83
2023/06/11 05:37:15;;;;;;;3.40;3.20;;;17.20;87.60;;;;;;4935234;29;20470;-83
2023/06/11 05:39:41;;;;;;;5.30;3.13;;;17.30;87.70;;;;;;4933266;29;20424;-85
2023/06/11 05:42:07;;;;;;;16.20;3.60;;;17.30;87.30;;;;;;4935620;29;20428;-83
2023/06/11 05:44:32;;;;;;;3.27;1.90;;;17.40;87.30;;;;;;4935302;29;20191;-85
2023/06/11 05:46:58;;;;;;;2.60;2.20;;;17.40;87.30;;;;;;4932434;29;20454;-84
2023/06/11 05:49:23;;;;;;;3.10;2.50;;;17.40;87.50;;;;;;4924075;29;20667;-83
2023/06/11 05:51:49;;;;;;;4.27;3.00;;;17.50;87.70;;;;;;4930073;29;20180;-83
2023/06/11 05:54:15;;;;;;;3.90;2.67;;;17.60;87.50;;;;;;4929696;29;20667;-83
2023/06/11 05:56:40;;;;;;;5.70;2.70;;;17.60;87.30;;;;;;4931105;29;20211;-83
2023/06/11 05:59:06;;;;;;;2.70;2.43;;;17.70;87.20;;;;;;4922400;29;20387;-83
2023/06/11 06:01:33;;;;;;;3.20;2.80;;;17.70;87.20;;;;;;4927886;29;20176;-85
2023/06/11 06:03:59;;;;;;;4.33;2.33;;;17.80;87.00;;;;;;4924461;29;20213;-83
2023/06/11 06:06:25;;;;;;;17.00;3.03;;;17.80;87.00;;;;;;4923310;29;20467;-83
2023/06/11 06:08:51;;;;;;;4.93;2.77;;;17.90;87.30;;;;;;4932016;29;20498;-82
2023/06/11 06:11:16;;;;;;;4.97;2.80;;;17.90;86.80;;;;;;4929386;29;20419;-83
2023/06/11 06:13:42;;;;;;;2.93;2.73;;;18.00;86.10;;;;;;4934949;29;20274;-85
2023/06/11 06:16:07;;;;;;;2.17;2.00;;;18.00;85.20;;;;;;4927018;29;20319;-84
2023/06/11 06:18:34;;;;;;;8.27;3.20;;;18.10;85.40;;;;;;4931582;29;20176;-85
2023/06/11 06:21:00;;;;;;;4.90;2.90;;;18.10;85.50;;;;;;4934693;29;20179;-85
2023/06/11 06:23:25;;;;;;;2.57;2.40;;;18.20;85.80;;;;;;4925420;29;20435;-84
2023/06/11 06:25:51;;;;;;;6.03;2.70;;;18.20;85.80;;;;;;4919511;29;20211;-83
2023/06/11 06:28:17;;;;;;;1.83;1.70;;;18.30;85.80;;;;;;4925293;29;20211;-83
2023/06/11 06:30:43;;;;;;;1.80;1.70;;;18.30;85.30;;;;;;4930787;29;20183;-85
2023/06/11 06:33:08;;;;;;;2.90;2.70;;;18.40;85.30;;;;;;4923947;29;20244;-83
2023/06/11 06:35:34;;;;;;;3.13;2.17;;;18.50;84.20;;;;;;4925218;29;20886;-84
2023/06/11 06:38:00;;;;;;;2.60;2.30;;;18.50;85.30;;;;;;4934389;29;20200;-83
2023/06/11 06:40:26;;;;;;;2.13;1.97;;;18.60;85.10;;;;;;4920659;29;20280;-85
2023/06/11 06:42:52;;;;;;;4.07;2.60;;;18.60;84.70;;;;;;4923722;29;20492;-83
2023/06/11 06:45:17;;;;;;;4.33;2.03;;;18.70;84.70;;;;;;4927741;29;20416;-85
2023/06/11 06:47:43;;;;;;;3.43;2.07;;;18.70;84.50;;;;;;4931340;29;20569;-83
2023/06/11 06:50:08;;;;;;;3.87;2.37;;;18.70;85.40;;;;;;4921469;29;20220;-83
2023/06/11 06:52:34;;;;;;;3.20;2.43;;;18.80;85.00;;;;;;4927291;29;20215;-84
2023/06/11 06:54:59;;;;;;;4.23;1.60;;;18.80;85.20;;;;;;4926028;29;20650;-84
2023/06/11 06:57:25;;;;;;;1.87;1.80;;;18.90;85.70;;;;;;4932607;29;20256;-83
2023/06/11 06:59:50;;;;;;;1.70;1.60;;;19.00;85.30;;;;;;4932781;29;20184;-85
2023/06/11 07:02:16;;;;;;;2.80;1.70;;;19.00;85.40;;;;;;4933898;29;20191;-83
2023/06/11 07:04:42;;;;;;;2.20;2.00;;;19.10;85.50;;;;;;4933404;29;20235;-83
2023/06/11 07:07:07;;;;;;;2.40;2.20;;;19.10;85.70;;;;;;4927973;29;20299;-83
2023/06/11 07:09:33;;;;;;;3.00;2.23;;;19.20;86.00;;;;;;4924612;29;20424;-84
2023/06/11 07:11:58;;;;;;;3.13;2.10;;;19.30;86.60;;;;;;4929676;29;20195;-83
2023/06/11 07:14:24;;;;;;;5.90;2.60;;;19.40;86.30;;;;;;4915366;29;20215;-83
2023/06/11 07:16:49;;;;;;;2.30;1.80;;;19.50;86.20;;;;;;4921816;29;20484;-84
2023/06/11 07:19:15;;;;;;;1.93;1.53;;;19.60;86.20;;;;;;4926516;29;20296;-82
2023/06/11 07:21:40;;;;;;;2.20;2.00;;;19.60;86.70;;;;;;4932743;29;20175;-85
2023/06/11 07:24:07;;;;;;;2.33;2.17;;;19.70;85.90;;;;;;4926814;29;20184;-84
2023/06/11 07:26:33;;;;;;;1.73;1.63;;;19.70;85.20;;;;;;4932786;29;20213;-85
2023/06/11 07:28:59;;;;;;;4.07;2.40;;;19.80;85.20;;;;;;4931359;29;20436;-85
2023/06/11 07:31:25;;;;;;;2.07;1.97;;;19.80;84.80;;;;;;4927976;29;20950;-83
2023/06/11 07:33:50;;;;;;;2.07;1.93;;;19.80;84.90;;;;;;4925451;29;20179;-84
2023/06/11 07:36:17;;;;;;;6.43;3.40;;;19.90;85.10;;;;;;4928405;29;20863;-83
2023/06/11 07:38:43;;;;;;;3.70;1.93;;;20.00;85.40;;;;;;4924378;29;20176;-83
2023/06/11 07:41:10;;;;;;;2.63;2.43;;;20.00;85.60;;;;;;4925648;29;20416;-84
2023/06/11 07:43:35;;;;;;;5.13;3.23;;;20.10;85.10;;;;;;4932729;29;20849;-85
2023/06/11 07:46:01;;;;;;;2.33;2.17;;;20.20;85.30;;;;;;4918363;29;20455;-84
2023/06/11 07:48:27;;;;;;;2.60;1.77;;;20.30;85.90;;;;;;4925562;29;20178;-85
2023/06/11 07:50:53;;;;;;;2.70;1.97;;;20.40;85.10;;;;;;4930713;29;21035;-85
2023/06/11 07:53:21;;;;;;;1.83;1.43;;;20.50;84.90;;;;;;4921655;29;20276;-83
2023/06/11 07:55:47;;;;;;;2.13;2.03;;;20.60;84.60;;;;;;4930824;29;20596;-83
2023/06/11 07:58:13;;;;;;;2.20;2.10;;;20.70;84.60;;;;;;4926971;29;20475;-85
2023/06/11 08:00:38;;;;;;;2.50;2.40;;;20.70;84.00;;;;;;4926138;29;20425;-85
2023/06/11 08:03:04;;;;;;;3.33;2.20;;;20.80;84.30;;;;;;4931159;29;20184;-85
2023/06/11 08:05:30;;;;;;;1.43;1.37;;;20.90;84.40;;;;;;4916120;29;20621;-85
2023/06/11 08:07:55;;;;;;;2.30;2.00;;;21.00;84.30;;;;;;4931775;29;20211;-86
2023/06/11 08:10:21;;;;;;;5.30;3.00;;;21.10;84.60;;;;;;4932985;29;20206;-85
2023/06/11 08:12:47;;;;;;;2.33;1.97;;;21.20;83.70;;;;;;4924023;29;20705;-85
2023/06/11 08:15:12;;;;;;;4.77;2.73;;;21.30;83.70;;;;;;4924265;29;20511;-84
2023/06/11 08:17:38;;;;;;;4.60;2.70;;;21.40;84.10;;;;;;4921943;29;20188;-85
2023/06/11 08:20:07;;;;;;;2.40;2.03;;;21.50;84.20;;;;;;4922201;29;20211;-85
2023/06/11 08:22:32;;;;;;;3.70;2.13;;;21.60;84.00;;;;;;4921836;29;20452;-85
2023/06/11 08:24:58;;;;;;;2.60;2.40;;;21.70;83.30;;;;;;4922050;29;20965;-83
2023/06/11 08:27:23;;;;;;;2.77;2.13;;;21.80;82.80;;;;;;4930236;29;20678;-84
2023/06/11 08:29:49;;;;;;;2.63;2.20;;;21.80;83.10;;;;;;4931295;29;20205;-85
2023/06/11 08:32:15;;;;;;;3.67;2.40;;;22.00;83.90;;;;;;4918413;29;20788;-83
2023/06/11 08:34:40;;;;;;;2.50;2.30;;;22.00;83.10;;;;;;4923141;29;20189;-85
2023/06/11 08:37:06;;;;;;;1.93;1.90;;;22.10;82.80;;;;;;4932565;29;20571;-83
2023/06/11 08:39:31;;;;;;;2.03;1.70;;;22.20;82.40;;;;;;4924164;29;20180;-85
2023/06/11 08:41:57;;;;;;;6.30;2.20;;;22.30;82.00;;;;;;4936812;29;20180;-85
2023/06/11 08:44:22;;;;;;;6.23;3.00;;;22.40;81.50;;;;;;4918163;29;20195;-85
2023/06/11 08:46:49;;;;;;;2.53;1.50;;;22.50;81.60;;;;;;4923970;29;20212;-84
2023/06/11 08:49:22;;;;;;;5.47;2.83;;;22.60;81.30;;;;;;4917950;29;20196;-83
2023/06/11 08:51:48;;;;;;;3.50;2.30;;;22.70;80.80;;;;;;4917846;29;20518;-85
2023/06/11 08:54:15;;;;;;;1.60;1.50;;;22.70;79.10;;;;;;4924572;29;20443;-84
2023/06/11 08:56:40;;;;;;;3.30;2.30;;;22.80;80.30;;;;;;4935465;29;20460;-85
2023/06/11 08:59:06;;;;;;;7.43;1.57;;;22.90;79.90;;;;;;4932833;29;20507;-85
2023/06/11 09:01:32;;;;;;;1.77;1.67;;;23.00;80.20;;;;;;4922792;29;20180;-85
2023/06/11 09:03:58;;;;;;;2.30;2.17;;;23.20;77.90;;;;;;4933249;29;20596;-85
2023/06/11 09:06:24;;;;;;;2.20;1.47;;;23.30;78.10;;;;;;4944989;29;20239;-83
2023/06/11 09:09:05;;;;;;;3.00;2.60;;;23.40;76.80;;;;;;4935321;29;20470;-84
2023/06/11 09:11:32;;;;;;;5.20;2.40;;;23.40;76.60;;;;;;4918390;29;20275;-83
2023/06/11 09:13:58;;;;;;;3.63;2.43;;;23.50;77.00;;;;;;4917315;29;20429;-82
2023/06/11 09:16:23;;;;;;;1.97;1.87;;;23.50;76.80;;;;;;4917326;29;20486;-85
2023/06/11 09:18:49;;;;;;;4.83;3.07;;;23.60;75.50;;;;;;4932472;29;20180;-85
2023/06/11 09:21:14;;;;;;;2.73;1.90;;;23.70;75.30;;;;;;4932136;29;20570;-83
2023/06/11 09:23:40;;;;;;;4.70;1.90;;;23.70;75.90;;;;;;4934493;29;20172;-83
2023/06/11 09:26:06;;;;;;;2.23;2.07;;;23.80;75.80;;;;;;4931682;29;20766;-83
2023/06/11 09:28:36;;;;;;;1.70;1.60;;;23.80;76.50;;;;;;4929125;29;20608;-85
2023/06/11 09:31:03;;;;;;;3.17;1.43;;;23.90;76.80;;;;;;4927263;29;20187;-83
2023/06/11 09:33:30;;;;;;;2.67;2.27;;;24.00;77.30;;;;;;4929348;29;20486;-85
2023/06/11 09:35:57;;;;;;;3.00;1.93;;;24.10;77.00;;;;;;4933092;29;21021;-85
2023/06/11 09:38:22;;;;;;;1.80;1.70;;;24.20;77.00;;;;;;4922430;29;20416;-85
2023/06/11 09:40:54;;;;;;;2.43;1.83;;;24.20;77.50;;;;;;4933551;29;20457;-84
2023/06/11 09:43:22;;;;;;;6.17;2.37;;;24.30;75.40;;;;;;4929682;29;20184;-82
2023/06/11 09:45:52;;;;;;;2.70;1.83;;;24.40;75.30;;;;;;4931627;29;20445;-84
2023/06/11 09:48:19;;;;;;;2.93;2.10;;;24.40;74.40;;;;;;4942358;29;20428;-83
2023/06/11 09:50:46;;;;;;;3.57;3.23;;;24.50;71.00;;;;;;4932345;29;20546;-85
2023/06/11 09:53:14;;;;;;;2.23;2.03;;;24.50;72.00;;;;;;4919901;29;20549;-82
2023/06/11 09:55:41;;;;;;;1.97;1.83;;;24.60;70.30;;;;;;4932162;29;20839;-84
2023/06/11 09:58:06;;;;;;;3.40;3.20;;;24.60;71.70;;;;;;4931035;29;20865;-82
2023/06/11 10:00:34;;;;;;;6.63;2.93;;;24.70;72.00;;;;;;4924800;29;20519;-84
2023/06/11 10:03:00;;;;;;;2.90;1.70;;;24.80;73.10;;;;;;4921652;29;20659;-83
2023/06/11 10:05:27;;;;;;;3.53;2.30;;;24.90;72.90;;;;;;4932822;29;20434;-85
2023/06/11 10:08:05;;;;;;;3.43;2.73;;;25.00;73.70;;;;;;4933548;29;20620;-82
2023/06/11 10:10:38;;;;;;;4.83;2.33;;;25.10;73.20;;;;;;4921726;29;20428;-85
2023/06/11 10:13:04;;;;;;;7.90;2.60;;;25.20;72.50;;;;;;4934960;29;20424;-82
2023/06/11 10:15:31;;;;;;;2.80;2.60;;;25.30;72.60;;;;;;4922315;29;20535;-84
2023/06/11 10:17:58;;;;;;;2.60;2.40;;;25.40;72.20;;;;;;4962288;23;20232;-87
2023/06/11 10:20:31;;;;;;;2.63;2.03;;;25.50;70.80;;;;;;4930923;29;20412;-86
2023/06/11 10:23:09;;;;;;;6.57;3.33;;;25.50;71.20;;;;;;4930922;29;20424;-86
2023/06/11 10:25:36;;;;;;;7.57;2.60;;;25.50;72.00;;;;;;4930123;29;20455;-86
2023/06/11 10:28:01;;;;;;;3.30;2.40;;;25.60;73.10;;;;;;4926135;29;20483;-89
2023/06/11 10:30:27;;;;;;;4.27;2.67;;;25.60;72.10;;;;;;4932301;29;20416;-88
2023/06/11 10:32:57;;;;;;;2.40;2.10;;;25.70;71.80;;;;;;4929776;29;20190;-90
2023/06/11 10:35:25;;;;;;;3.90;2.80;;;25.70;72.00;;;;;;4929455;29;20192;-87
2023/06/11 10:38:07;;;;;;;3.23;2.07;;;25.70;71.90;;;;;;4932574;29;20447;-90
2023/06/11 10:40:38;;;;;;;5.43;2.70;;;25.70;72.20;;;;;;4933047;29;20427;-88
2023/06/11 10:43:24;;;;;;;5.10;3.10;;;25.80;72.40;;;;;;4929447;29;20427;-86
2023/06/11 10:46:03;;;;;;;5.50;4.37;;;25.90;72.20;;;;;;4932620;29;20438;-89
2023/06/11 10:48:30;;;;;;;3.40;2.20;;;26.00;73.70;;;;;;4926970;29;20973;-90
2023/06/11 10:51:03;;;;;;;2.80;2.57;;;26.10;71.40;;;;;;4932809;29;20424;-90
2023/06/11 10:53:36;;;;;;;2.80;2.23;;;26.00;71.10;;;;;;4932199;29;20420;-90
2023/06/11 10:56:02;;;;;;;2.77;2.20;;;26.00;70.70;;;;;;4929826;29;20472;-89
2023/06/11 10:58:29;;;;;;;2.70;2.50;;;25.90;72.10;;;;;;4948345;29;20442;-90
2023/06/11 11:00:55;;;;;;;3.73;2.83;;;26.00;72.80;;;;;;4934590;29;20184;-90
2023/06/11 11:03:26;;;;;;;3.33;3.13;;;26.10;71.70;;;;;;4934374;29;20423;-90
2023/06/11 11:05:53;;;;;;;5.10;2.83;;;26.10;70.40;;;;;;4936282;29;20184;-89
2023/06/11 11:08:20;;;;;;;7.03;2.50;;;26.20;70.30;;;;;;4929364;29;20603;-87
2023/06/11 11:10:45;;;;;;;5.27;2.50;;;26.20;73.10;;;;;;4943643;29;20432;-90
2023/06/11 11:13:11;;;;;;;2.73;2.10;;;26.30;72.50;;;;;;4943564;29;20495;-90
2023/06/11 11:15:40;;;;;;;6.30;3.10;;;26.40;72.40;;;;;;4949184;29;20200;-90
2023/06/11 11:18:07;;;;;;;3.53;2.43;;;26.50;72.20;;;;;;4938852;29;20246;-90
2023/06/11 11:20:33;;;;;;;3.13;2.20;;;26.50;71.50;;;;;;4932612;29;20432;-89
2023/06/11 11:22:59;;;;;;;3.30;3.10;;;26.50;72.40;;;;;;4932177;29;20798;-91
2023/06/11 11:25:29;;;;;;;3.93;2.37;;;26.70;74.30;;;;;;4931942;29;20195;-88
2023/06/11 11:27:56;;;;;;;4.80;2.77;;;26.80;73.90;;;;;;4922826;29;20714;-88
2023/06/11 11:30:29;;;;;;;2.20;2.00;;;26.90;73.20;;;;;;4925202;29;20718;-90
2023/06/11 11:32:56;;;;;;;1.70;1.70;;;27.00;73.60;;;;;;4915598;29;20464;-89
2023/06/11 11:35:22;;;;;;;2.73;2.03;;;27.10;71.70;;;;;;4913992;29;20440;-89
2023/06/11 11:37:50;;;;;;;3.60;3.03;;;27.10;69.60;;;;;;4927858;29;20455;-88
2023/06/11 11:40:20;;;;;;;1.90;1.83;;;27.10;72.10;;;;;;4929398;29;20512;-89
2023/06/11 11:42:57;;;;;;;2.70;2.50;;;27.20;70.90;;;;;;4920550;29;20436;-88
2023/06/11 11:45:30;;;;;;;6.70;3.43;;;27.30;71.60;;;;;;4928100;29;20422;-88
2023/06/11 11:47:55;;;;;;;3.47;2.20;;;27.30;70.10;;;;;;4931695;29;20448;-88
2023/06/11 11:50:27;;;;;;;2.20;2.00;;;27.10;70.10;;;;;;4931635;29;20470;-89
2023/06/11 11:53:13;;;;;;;2.80;2.50;;;27.10;71.80;;;;;;4931595;29;20658;-86
2023/06/11 11:55:40;;;;;;;2.53;2.23;;;27.10;73.10;;;;;;4925974;29;20451;-88
2023/06/11 11:58:09;;;;;;;4.37;3.27;;;27.30;72.50;;;;;;4914212;29;20507;-87
2023/06/11 12:00:36;;;;;;;3.73;2.37;;;27.40;72.10;;;;;;4931668;29;20451;-89
2023/06/11 12:03:09;;;;;;;4.30;2.87;;;27.50;71.30;;;;;;4929169;29;20798;-87
2023/06/11 12:05:39;;;;;;;2.20;1.90;;;27.60;71.30;;;;;;4932383;29;20424;-87
2023/06/11 12:08:06;;;;;;;9.53;2.13;;;27.60;69.70;;;;;;4929511;29;20470;-90
2023/06/11 12:10:36;;;;;;;2.07;1.93;;;27.60;71.00;;;;;;4926536;29;20424;-88
2023/06/11 12:13:06;;;;;;;5.50;3.40;;;27.70;72.20;;;;;;4931686;29;21107;-88
2023/06/11 12:15:32;;;;;;;2.83;2.67;;;27.80;71.80;;;;;;4930584;29;20430;-89
2023/06/11 12:17:57;;;;;;;3.50;3.03;;;28.00;71.50;;;;;;4930614;29;20558;-87
2023/06/11 12:20:26;;;;;;;2.53;2.33;;;28.10;70.60;;;;;;4932142;29;20180;-88
2023/06/11 12:22:51;;;;;;;2.30;2.10;;;28.10;68.60;;;;;;4923516;29;20184;-90
2023/06/11 12:25:17;;;;;;;8.47;3.10;;;28.10;69.50;;;;;;4920088;29;20440;-88
2023/06/11 12:27:44;;;;;;;3.03;2.63;;;28.00;69.50;;;;;;4928439;29;20211;-88
2023/06/11 12:30:10;;;;;;;2.70;2.50;;;28.10;71.10;;;;;;4935112;29;20534;-89
2023/06/11 12:32:36;;;;;;;7.30;3.37;;;28.20;68.40;;;;;;4933378;29;20420;-88
2023/06/11 12:35:02;;;;;;;3.07;2.13;;;28.30;69.80;;;;;;4932895;29;20444;-88
2023/06/11 12:37:28;;;;;;;3.67;2.60;;;28.40;69.40;;;;;;4934551;29;20212;-91
2023/06/11 12:39:53;;;;;;;4.23;2.80;;;28.20;68.30;;;;;;4934917;29;20973;-88
2023/06/11 12:42:22;;;;;;;1.60;1.50;;;28.10;69.80;;;;;;4936093;29;20189;-88
2023/06/11 12:44:47;;;;;;;3.20;2.70;;;28.10;69.90;;;;;;4934348;29;20180;-87
2023/06/11 12:47:19;;;;;;;1.63;1.53;;;28.20;70.40;;;;;;4931116;29;20455;-90
2023/06/11 12:49:45;;;;;;;4.93;2.60;;;28.40;70.60;;;;;;4928457;29;20180;-90
2023/06/11 12:52:11;;;;;;;2.53;2.27;;;28.50;68.00;;;;;;4932764;29;20957;-88
2023/06/11 12:54:37;;;;;;;5.97;3.23;;;28.40;67.90;;;;;;4933562;29;20207;-91
2023/06/11 12:57:03;;;;;;;2.70;2.57;;;28.20;68.60;;;;;;4934171;29;20475;-89
2023/06/11 12:59:29;;;;;;;2.87;2.30;;;28.10;69.10;;;;;;4934515;29;20176;-91
2023/06/11 13:01:54;;;;;;;2.43;2.23;;;28.20;69.40;;;;;;4934568;29;20420;-87
2023/06/11 13:04:20;;;;;;;7.57;3.53;;;28.30;68.90;;;;;;4933047;29;20537;-89
2023/06/11 13:06:46;;;;;;;2.67;2.20;;;28.40;69.80;;;;;;4934179;29;20246;-87
2023/06/11 13:09:12;;;;;;;2.13;1.97;;;28.40;69.50;;;;;;4934284;29;20726;-88
2023/06/11 13:11:38;;;;;;;2.90;2.27;;;28.50;68.70;;;;;;4928515;29;20267;-90
2023/06/11 13:14:04;;;;;;;2.63;2.03;;;28.50;67.80;;;;;;4934036;29;20503;-88
2023/06/11 13:16:30;;;;;;;6.70;2.27;;;28.60;68.50;;;;;;4933778;29;20578;-90
2023/06/11 13:18:59;;;;;;;3.60;2.50;;;28.70;68.30;;;;;;4931864;29;20938;-88
2023/06/11 13:21:26;;;;;;;3.63;3.33;;;28.80;67.30;;;;;;4928154;29;20645;-88
2023/06/11 13:23:52;;;;;;;4.67;2.40;;;28.90;67.90;;;;;;4933905;29;20462;-88
2023/06/11 13:26:17;;;;;;;2.57;2.40;;;28.90;66.60;;;;;;4933701;29;20440;-88
2023/06/11 13:28:44;;;;;;;3.80;2.70;;;29.10;69.40;;;;;;4934342;29;20276;-88
2023/06/11 13:31:09;;;;;;;2.23;2.10;;;29.20;66.40;;;;;;4934301;29;20176;-89
2023/06/11 13:33:35;;;;;;;4.60;3.40;;;29.30;66.00;;;;;;4933646;29;20447;-90
2023/06/11 13:36:03;;;;;;;4.17;2.10;;;29.40;67.10;;;;;;4930232;29;20211;-91
2023/06/11 13:38:29;;;;;;;2.93;2.73;;;29.50;67.40;;;;;;4933082;29;20203;-89
2023/06/11 13:40:55;;;;;;;3.13;2.73;;;29.70;67.80;;;;;;4928424;29;20424;-88
2023/06/11 13:43:27;;;;;;;7.03;3.27;;;29.80;67.60;;;;;;4934668;29;20191;-88
2023/06/11 13:45:53;;;;;;;6.73;3.00;;;29.90;66.70;;;;;;4931179;29;20259;-87
2023/06/11 13:48:28;;;;;;;5.83;3.37;;;30.00;66.70;;;;;;4931856;29;20582;-88
2023/06/11 13:50:56;;;;;;;8.17;4.00;;;30.10;66.20;;;;;;4931162;29;20179;-87
2023/06/11 13:53:24;;;;;;;3.67;2.77;;;30.00;65.30;;;;;;4933263;29;20958;-88
2023/06/11 13:55:57;;;;;;;2.97;2.83;;;30.00;64.80;;;;;;4931375;29;20888;-88
2023/06/11 13:58:25;;;;;;;2.07;1.93;;;30.00;66.10;;;;;;4933505;29;20469;-88
2023/06/11 14:00:55;;;;;;;4.10;2.17;;;30.00;64.30;;;;;;4930316;29;20924;-91
2023/06/11 14:03:25;;;;;;;2.80;2.50;;;29.70;63.70;;;;;;4932521;29;20427;-87
2023/06/11 14:05:57;;;;;;;5.47;2.77;;;29.50;64.50;;;;;;4934029;29;20431;-88
2023/06/11 14:08:22;;;;;;;3.77;2.90;;;29.40;65.80;;;;;;4926431;29;20443;-87
2023/06/11 14:10:51;;;;;;;3.80;2.40;;;29.50;65.20;;;;;;4933618;29;20790;-87
2023/06/11 14:13:16;;;;;;;5.30;2.50;;;29.70;65.60;;;;;;4932261;29;20184;-88
2023/06/11 14:15:47;;;;;;;3.50;3.03;;;29.70;64.90;;;;;;4928071;29;20434;-88
2023/06/11 14:18:14;;;;;;;3.23;2.47;;;29.90;66.10;;;;;;4932759;29;20370;-89
2023/06/11 14:20:40;;;;;;;2.83;2.63;;;30.00;65.30;;;;;;4933243;29;20424;-90
2023/06/11 14:23:05;;;;;;;2.83;2.30;;;30.10;65.20;;;;;;4934214;29;20446;-87
2023/06/11 14:25:31;;;;;;;2.40;2.20;;;30.10;64.70;;;;;;4932840;29;20572;-89
2023/06/11 14:27:56;;;;;;;3.10;2.47;;;30.20;64.30;;;;;;4932764;29;20207;-87
2023/06/11 14:30:22;;;;;;;5.40;2.70;;;30.30;64.60;;;;;;4933040;29;20180;-89
2023/06/11 14:32:48;;;;;;;2.67;2.50;;;30.40;63.90;;;;;;4934395;29;20239;-89
2023/06/11 14:35:14;;;;;;;2.60;2.33;;;30.50;64.50;;;;;;4926376;29;20176;-88
2023/06/11 14:37:39;;;;;;;7.03;2.40;;;30.50;63.10;;;;;;4930938;29;20629;-90
2023/06/11 14:40:05;;;;;;;6.17;2.87;;;30.50;64.10;;;;;;4917296;29;20417;-87
2023/06/11 14:42:31;;;;;;;5.97;2.67;;;30.60;63.70;;;;;;4932716;29;20172;-91
2023/06/11 14:45:00;;;;;;;3.37;2.60;;;30.60;63.30;;;;;;4932205;29;20483;-90
2023/06/11 14:47:26;;;;;;;4.03;3.20;;;30.70;63.20;;;;;;4934134;29;20424;-88
2023/06/11 14:49:51;;;;;;;2.90;2.70;;;30.70;62.50;;;;;;4930837;29;20492;-87
2023/06/11 14:52:17;;;;;;;3.10;2.27;;;30.80;63.40;;;;;;4932539;29;20569;-88
2023/06/11 14:54:42;;;;;;;8.30;4.00;;;30.80;64.20;;;;;;4932192;29;20191;-90
2023/06/11 14:57:17;;;;;;;3.53;2.63;;;30.90;63.20;;;;;;4932095;29;20216;-92
2023/06/11 14:59:43;;;;;;;9.20;2.27;;;30.90;63.70;;;;;;4932743;29;20184;-87
2023/06/11 15:02:10;;;;;;;5.43;3.40;;;30.90;64.60;;;;;;4931269;29;20496;-88
2023/06/11 15:04:39;;;;;;;2.50;2.00;;;31.00;64.10;;;;;;4928811;29;20420;-89
2023/06/11 15:07:07;;;;;;;4.00;3.30;;;31.00;63.30;;;;;;4939181;29;20448;-89
2023/06/11 15:09:36;;;;;;;6.07;2.40;;;31.00;63.10;;;;;;4932091;29;20431;-88
2023/06/11 15:12:05;;;;;;;2.93;2.57;;;31.10;64.70;;;;;;4930772;29;20451;-87
2023/06/11 15:14:31;;;;;;;4.13;2.87;;;31.10;64.40;;;;;;4932336;29;20431;-87
2023/06/11 15:16:57;;;;;;;3.67;2.60;;;31.20;63.60;;;;;;4932144;29;20574;-87
2023/06/11 15:19:23;;;;;;;3.10;2.90;;;31.20;63.80;;;;;;4927378;29;20432;-89
2023/06/11 15:21:50;;;;;;;2.83;2.00;;;31.20;63.80;;;;;;4927813;29;20428;-90
2023/06/11 15:24:15;;;;;;;6.43;2.90;;;31.10;63.00;;;;;;4931500;29;20415;-89
2023/06/11 15:26:41;;;;;;;2.80;2.60;;;31.00;62.90;;;;;;4931455;29;20444;-88
2023/06/11 15:29:06;;;;;;;2.20;2.00;;;31.00;63.10;;;;;;4921035;29;20230;-88
2023/06/11 15:31:32;;;;;;;2.63;2.43;;;31.00;63.20;;;;;;4929957;29;20238;-90
2023/06/11 15:33:57;;;;;;;5.20;2.60;;;31.10;63.70;;;;;;4931618;29;20550;-86
2023/06/11 15:36:23;;;;;;;3.53;3.27;;;31.10;64.00;;;;;;4933940;29;20215;-88
2023/06/11 15:38:48;;;;;;;2.27;2.13;;;31.20;63.50;;;;;;4937606;29;20184;-87
2023/06/11 15:41:14;;;;;;;3.13;2.43;;;31.20;63.80;;;;;;4936770;29;20180;-87
2023/06/11 15:43:39;;;;;;;9.60;3.47;;;31.20;63.80;;;;;;4936993;29;20594;-90
2023/06/11 15:46:05;;;;;;;3.47;3.30;;;31.20;62.70;;;;;;4937542;29;20187;-89
2023/06/11 15:48:33;;;;;;;5.40;3.40;;;31.10;63.20;;;;;;4937178;29;20196;-87
2023/06/11 15:50:59;;;;;;;3.77;3.57;;;31.20;63.60;;;;;;4946747;29;20164;-90
2023/06/11 15:53:24;;;;;;;3.73;2.93;;;31.20;63.60;;;;;;4955293;29;20515;-89
2023/06/11 15:55:50;;;;;;;4.30;2.57;;;31.20;62.60;;;;;;4937688;29;20204;-91
2023/06/11 15:58:17;;;;;;;4.63;3.20;;;31.10;61.80;;;;;;4931894;29;20204;-88
2023/06/11 16:00:45;;;;;;;6.67;3.37;;;30.80;62.50;;;;;;4934468;29;20274;-86
2023/06/11 16:03:15;;;;;;;3.87;2.67;;;30.50;63.70;;;;;;4937908;29;20979;-87
2023/06/11 16:05:40;;;;;;;4.17;3.40;;;30.40;64.40;;;;;;4935305;29;21017;-89
2023/06/11 16:08:06;;;;;;;2.33;2.07;;;30.30;64.50;;;;;;4937597;29;20523;-87
2023/06/11 16:10:39;;;;;;;4.70;3.30;;;30.40;65.30;;;;;;4937171;29;20669;-88
2023/06/11 16:13:07;;;;;;;4.93;2.53;;;30.40;64.80;;;;;;4922622;29;20730;-88
2023/06/11 16:15:40;;;;;;;3.70;2.70;;;30.50;65.40;;;;;;4930185;29;20558;-89
2023/06/11 16:18:05;;;;;;;4.07;2.93;;;30.50;65.00;;;;;;4958817;23;20504;-64
2023/06/11 16:20:31;;;;;;;4.50;3.17;;;30.50;64.80;;;;;;4955068;29;20434;-64
2023/06/11 16:22:57;;;;;;;12.07;4.37;;;30.60;64.90;;;;;;4950125;28;20187;-64
2023/06/11 16:25:22;;;;;;;4.47;3.13;;;30.60;64.90;;;;;;4955797;28;20187;-64
2023/06/11 16:27:48;;;;;;;4.43;3.07;;;30.70;65.00;;;;;;4954327;28;20215;-64
2023/06/11 16:30:15;;;;;;;2.73;2.53;;;30.60;64.60;;;;;;4954728;29;20175;-64
2023/06/11 16:32:41;;;;;;;7.30;2.80;;;30.60;65.00;;;;;;4954501;28;20186;-64
2023/06/11 16:35:07;;;;;;;3.63;3.20;;;30.70;64.90;;;;;;4952584;28;20422;-64
2023/06/11 16:37:33;;;;;;;3.97;2.27;;;30.70;64.90;;;;;;4955145;28;20466;-64
2023/06/11 16:39:58;;;;;;;7.47;3.43;;;30.70;65.50;;;;;;4956630;28;20266;-64
2023/06/11 16:42:24;;;;;;;4.33;3.57;;;30.60;65.20;;;;;;4955982;28;20218;-64
2023/06/11 16:44:49;;;;;;;6.30;4.47;;;30.60;66.10;;;;;;4956108;29;20241;-64